createdAt,value
2022-11-02T00:03:45.948Z,8.8
2022-11-02T00:08:37.110Z,8.7
2022-11-02T00:13:43.724Z,8.8
2022-11-02T00:19:04.774Z,8.8
2022-11-02T00:24:27.302Z,8.9
2022-11-02T00:29:50.570Z,8.7
2022-11-02T00:35:12.635Z,8.5
2022-11-02T00:40:54.246Z,8.3
2022-11-02T00:46:15.998Z,7.8
2022-11-02T00:51:53.463Z,7.5
2022-11-02T00:57:35.691Z,7.1
2022-11-02T01:03:14.150Z,6.8
2022-11-02T01:08:51.374Z,6.6
2022-11-02T01:14:30.540Z,7
2022-11-02T01:19:37.348Z,7.1
2022-11-02T01:24:58.250Z,7.4
2022-11-02T01:30:36.458Z,7.6
2022-11-02T01:35:57.715Z,7.8
2022-11-02T01:41:19.568Z,7.9
2022-11-02T01:46:41.998Z,7.8
2022-11-02T01:52:04.387Z,8.1
2022-11-02T02:01:46.177Z,7.3
2022-11-02T02:06:50.958Z,7.1
2022-11-02T02:12:11.899Z,6.9
2022-11-02T02:17:23.975Z,7.1
2022-11-02T02:27:35.115Z,7.3
2022-11-02T02:32:42.119Z,7.5
2022-11-02T02:38:03.765Z,7.6
2022-11-02T02:43:25.774Z,7.5
2022-11-02T02:48:48.372Z,7.4
2022-11-02T02:54:09.792Z,7.3
2022-11-02T02:59:47.193Z,6.7
2022-11-02T03:04:54.920Z,6.6
2022-11-02T03:10:31.229Z,6.4
2022-11-02T03:15:52.827Z,6.5
2022-11-02T03:21:16.197Z,6.7
2022-11-02T03:26:37.095Z,6.2
2022-11-02T03:31:58.897Z,5.8
2022-11-02T03:36:50.099Z,5.7
2022-11-02T03:41:55.366Z,5.7
2022-11-02T03:47:16.884Z,5.7
2022-11-02T03:52:23.612Z,5.5
2022-11-02T03:57:44.665Z,5.6
2022-11-02T04:03:07.478Z,5.6
2022-11-02T04:08:16.141Z,5.5
2022-11-02T04:13:52.627Z,5.4
2022-11-02T04:19:01.982Z,5.7
2022-11-02T04:24:08.624Z,5.6
2022-11-02T04:29:44.900Z,5.6
2022-11-02T04:35:21.932Z,5.6
2022-11-02T04:41:00.841Z,5.5
2022-11-02T04:46:40.532Z,5.6
2022-11-02T04:52:06.097Z,5.4
2022-11-02T04:57:28.281Z,5.3
2022-11-02T05:02:35.341Z,5.1
2022-11-02T05:08:07.687Z,5.1
2022-11-02T05:13:44.968Z,5.1
2022-11-02T05:19:27.678Z,5.2
2022-11-02T05:25:04.964Z,5.1
2022-11-02T05:30:32.121Z,5.4
2022-11-02T05:36:10.068Z,5.5
2022-11-02T05:41:50.746Z,5.7
2022-11-02T05:47:28.120Z,6.1
2022-11-02T05:52:49.859Z,6.3
2022-11-02T05:58:12.782Z,6.6
2022-11-02T06:03:36.120Z,7.1
2022-11-02T06:08:44.587Z,7.4
2022-11-02T06:13:57.167Z,7.8
2022-11-02T06:19:19.287Z,8.2
2022-11-02T06:24:41.036Z,8.1
2022-11-02T06:30:03.960Z,8.9
2022-11-02T06:35:42.174Z,9.2
2022-11-02T06:41:04.046Z,9.3
2022-11-02T06:47:05.631Z,9.6
2022-11-02T06:52:49.781Z,10.3
2022-11-02T06:57:57.490Z,10.8
2022-11-02T07:03:21.806Z,11
2022-11-02T07:08:32.128Z,11.9
2022-11-02T07:13:55.000Z,12.4
2022-11-02T07:19:33.767Z,12.8
2022-11-02T07:24:56.276Z,13.1
2022-11-02T07:30:34.063Z,12.5
2022-11-02T07:36:01.851Z,12.8
2022-11-02T07:41:39.839Z,13.2
2022-11-02T07:47:22.102Z,14.6
2022-11-02T07:53:04.225Z,14.4
2022-11-02T07:58:28.298Z,15.4
2022-11-02T08:03:54.247Z,15.9
2022-11-02T08:09:18.074Z,15.8
2022-11-02T08:14:40.425Z,16.4
2022-11-02T08:20:03.404Z,16.7
2022-11-02T08:25:27.478Z,16.6
2022-11-02T08:35:50.149Z,17.8
2022-11-02T08:41:19.879Z,17.4
2022-11-02T08:47:23.441Z,18.1
2022-11-02T08:52:45.538Z,18.4
2022-11-02T08:58:08.349Z,18.9
2022-11-02T09:03:30.888Z,19.4
2022-11-02T09:08:54.931Z,19.6
2022-11-02T09:14:35.553Z,19.2
2022-11-02T09:19:58.027Z,20.1
2022-11-02T09:25:20.114Z,20.9
2022-11-02T09:30:48.437Z,21.4
2022-11-02T09:36:31.242Z,22
2022-11-02T09:42:08.771Z,22.1
2022-11-02T09:48:17.035Z,21.9
2022-11-02T09:54:06.013Z,22.2
2022-11-02T09:59:28.559Z,22.7
2022-11-02T10:04:51.556Z,22.9
2022-11-02T10:10:13.985Z,23.5
2022-11-02T10:15:25.578Z,24.2
2022-11-02T10:20:47.774Z,23.8
2022-11-02T10:26:25.425Z,24.7
2022-11-02T10:32:05.980Z,25.2
2022-11-02T10:38:31.058Z,25.1
2022-11-02T10:44:09.323Z,26.6
2022-11-02T10:49:16.510Z,26.1
2022-11-02T10:55:40.271Z,26.8
2022-11-02T11:00:47.874Z,26.4
2022-11-02T11:06:26.610Z,26.3
2022-11-02T11:11:49.794Z,26.4
2022-11-02T11:21:23.949Z,27.5
2022-11-02T11:26:50.382Z,26.7
2022-11-02T11:32:47.063Z,26.6
2022-11-02T11:38:12.370Z,27.4
2022-11-02T11:43:22.881Z,26.8
2022-11-02T11:48:06.339Z,27.2
2022-11-02T11:53:46.401Z,26.5
2022-11-02T11:58:38.059Z,27.1
2022-11-02T12:03:52.043Z,26.7
2022-11-02T12:09:19.665Z,26.4
2022-11-02T12:14:45.356Z,26.8
2022-11-02T12:20:12.376Z,26.4
2022-11-02T12:25:35.195Z,26.5
2022-11-02T12:30:41.572Z,26.5
2022-11-02T12:36:30.271Z,26.6
2022-11-02T12:42:32.982Z,26.3
2022-11-02T12:47:56.382Z,26.8
2022-11-02T12:53:04.152Z,26.5
2022-11-02T12:58:16.320Z,26.4
2022-11-02T13:03:40.022Z,27.1
2022-11-02T13:09:05.657Z,26.6
2022-11-02T13:14:15.960Z,26.6
2022-11-02T13:19:44.511Z,26.4
2022-11-02T13:25:14.511Z,26.3
2022-11-02T13:30:46.106Z,26.4
2022-11-02T13:36:02.342Z,26.1
2022-11-02T13:41:09.461Z,25.6
2022-11-02T13:46:31.856Z,25.6
2022-11-02T13:52:10.728Z,25.6
2022-11-02T13:57:26.416Z,25.4
2022-11-02T14:03:09.345Z,25.1
2022-11-02T14:08:50.443Z,24.9
2022-11-02T14:14:28.771Z,24.5
2022-11-02T14:20:11.315Z,24.3
2022-11-02T14:25:49.352Z,24
2022-11-02T14:31:32.267Z,23.8
2022-11-02T14:37:09.003Z,23.4
2022-11-02T14:42:48.700Z,23.1
2022-11-02T14:48:27.700Z,22.8
2022-11-02T14:54:06.522Z,22.3
2022-11-02T14:59:17.427Z,21.9
2022-11-02T15:04:44.503Z,21.7
2022-11-02T15:10:22.401Z,21.2
2022-11-02T15:16:04.084Z,20.7
2022-11-02T15:21:41.734Z,20.1
2022-11-02T15:27:32.815Z,19.5
2022-11-02T15:33:17.999Z,19.1
2022-11-02T15:39:29.947Z,18.9
2022-11-02T15:45:14.053Z,18.8
2022-11-02T16:02:11.878Z,18.1
2022-11-02T16:14:08.364Z,17.7
2022-11-02T16:19:46.484Z,17.8
2022-11-02T16:25:26.033Z,17.8
2022-11-02T16:30:48.155Z,17.8
2022-11-02T16:36:34.826Z,17.4
2022-11-02T16:42:14.835Z,17.1
2022-11-02T16:47:28.883Z,16.9
2022-11-02T16:53:09.503Z,16.8
2022-11-02T16:58:50.527Z,16.6
2022-11-02T17:04:28.738Z,16.9
2022-11-02T17:09:55.149Z,16.9
2022-11-02T17:15:39.046Z,16.9
2022-11-02T17:21:17.515Z,16.9
2022-11-02T17:32:02.274Z,16.5
2022-11-02T17:37:45.364Z,15.9
2022-11-02T17:43:07.517Z,15.1
2022-11-02T17:48:14.647Z,14.9
2022-11-02T17:53:37.510Z,14.9
2022-11-02T18:04:06.886Z,15.2
2022-11-02T18:09:49.918Z,15.2
2022-11-02T18:15:27.566Z,15.3
2022-11-02T18:21:04.610Z,15.6
2022-11-02T18:26:46.880Z,16
2022-11-02T18:32:13.303Z,15.9
2022-11-02T18:37:50.847Z,15.9
2022-11-02T18:48:55.778Z,15.4
2022-11-02T18:54:39.165Z,14.9
2022-11-02T19:00:05.045Z,14.8
2022-11-02T19:05:46.144Z,15.3
2022-11-02T19:16:54.462Z,15.6
2022-11-02T19:22:16.823Z,15.7
2022-11-02T19:27:59.133Z,15.4
2022-11-02T19:33:38.907Z,15.2
2022-11-02T19:39:19.864Z,15.3
2022-11-02T19:44:59.037Z,15.8
2022-11-02T19:50:37.646Z,16.1
2022-11-02T19:56:18.146Z,16.4
2022-11-02T20:01:56.112Z,16.4
2022-11-02T20:07:18.014Z,16.4
2022-11-02T20:12:56.174Z,16.4
2022-11-02T20:19:09.454Z,16.6
2022-11-02T20:24:38.561Z,16.6
2022-11-02T20:30:20.788Z,16.6
2022-11-02T20:35:30.157Z,16.5
2022-11-02T20:41:13.226Z,16.5
2022-11-02T20:47:26.800Z,16.6
2022-11-02T20:53:35.863Z,16.9
2022-11-02T20:58:58.332Z,16.9
2022-11-02T21:04:38.357Z,16.8
2022-11-02T21:10:18.851Z,16.8
2022-11-02T21:15:56.951Z,16.6
2022-11-02T21:22:02.087Z,16.6
2022-11-02T21:27:24.758Z,16.6
2022-11-02T21:33:02.790Z,16.4
2022-11-02T21:38:40.843Z,16.4
2022-11-02T21:44:03.698Z,16.5
2022-11-02T21:49:41.688Z,16.5
2022-11-02T21:55:19.809Z,16.3
2022-11-02T22:01:03.585Z,16.3
2022-11-02T22:06:47.804Z,16.2
2022-11-02T22:12:09.683Z,16.2
2022-11-02T22:18:16.212Z,16.3
2022-11-02T22:23:53.325Z,16.3
2022-11-02T22:29:32.880Z,16.3
2022-11-02T22:35:10.102Z,16.3
2022-11-02T22:40:31.999Z,16.3
2022-11-02T22:46:10.123Z,16.3
2022-11-02T22:51:52.019Z,16.3
2022-11-02T22:57:13.891Z,16.1
2022-11-02T23:07:58.997Z,16.2
2022-11-02T23:13:37.131Z,16.1
2022-11-02T23:24:23.614Z,15.9
2022-11-02T23:29:46.267Z,15.8
2022-11-02T23:35:24.136Z,15.8
2022-11-02T23:40:30.377Z,15.6
2022-11-02T23:46:07.536Z,15.7
2022-11-02T23:51:30.085Z,15.7
2022-11-02T23:57:06.159Z,15.7
